createdAt,value
2017-10-06T00:02:35.313Z,13.47
2017-10-06T00:17:35.329Z,13.59
2017-10-06T00:32:34.183Z,13.59
2017-10-06T00:47:36.717Z,13.50
2017-10-06T01:02:36.563Z,13.47
2017-10-06T01:17:35.285Z,13.49
2017-10-06T01:32:34.946Z,13.26
2017-10-06T01:47:35.041Z,13.25
2017-10-06T02:02:34.846Z,13.23
2017-10-06T02:17:35.801Z,13.21
2017-10-06T02:32:35.249Z,12.90
2017-10-06T02:47:35.329Z,12.92
2017-10-06T03:02:35.118Z,12.89
2017-10-06T03:17:39.773Z,12.81
2017-10-06T03:32:35.232Z,12.62
2017-10-06T03:47:37.878Z,12.61
2017-10-06T04:02:34.427Z,12.49
2017-10-06T04:17:38.130Z,12.44
2017-10-06T04:32:34.761Z,12.46
2017-10-06T04:47:34.716Z,12.53
2017-10-06T05:02:34.844Z,12.65
2017-10-06T05:17:34.599Z,15.46
2017-10-06T05:32:35.080Z,19.25
2017-10-06T05:47:35.074Z,21.84
2017-10-06T06:02:34.943Z,20.37
2017-10-06T06:17:35.029Z,24.38
2017-10-06T06:32:35.364Z,25.51
2017-10-06T06:47:35.307Z,25.09
2017-10-06T07:02:37.284Z,26.13
2017-10-06T07:17:35.135Z,25.17
2017-10-06T07:32:36.622Z,25.00
2017-10-06T07:47:35.366Z,24.67
2017-10-06T08:02:34.441Z,26.18
2017-10-06T08:17:36.419Z,27.16
2017-10-06T08:32:36.935Z,27.92
2017-10-06T08:47:35.779Z,29.13
2017-10-06T09:02:34.214Z,30.57
2017-10-06T09:17:36.637Z,31.49
2017-10-06T09:32:35.075Z,31.69
2017-10-06T09:47:35.008Z,30.56
2017-10-06T10:02:34.927Z,29.83
2017-10-06T10:17:34.896Z,29.38
2017-10-06T10:32:34.329Z,29.00
2017-10-06T10:47:38.363Z,29.24
2017-10-06T11:02:35.235Z,29.62
2017-10-06T11:17:37.452Z,29.38
2017-10-06T11:32:34.618Z,28.96
2017-10-06T11:47:34.602Z,28.61
2017-10-06T12:02:34.849Z,28.43
2017-10-06T12:17:34.423Z,28.25
2017-10-06T12:32:34.850Z,28.10
2017-10-06T12:47:37.796Z,27.38
2017-10-06T13:02:34.729Z,25.51
2017-10-06T13:17:34.691Z,24.02
2017-10-06T13:32:35.091Z,23.05
2017-10-06T13:47:37.017Z,22.21
2017-10-06T14:02:35.148Z,21.68
2017-10-06T14:17:34.984Z,21.66
2017-10-06T14:32:34.361Z,21.29
2017-10-06T14:47:35.384Z,20.93
2017-10-06T15:02:35.242Z,22.26
2017-10-06T15:17:37.160Z,20.15
2017-10-06T15:32:34.689Z,19.01
2017-10-06T15:47:34.599Z,18.14
2017-10-06T16:02:34.570Z,17.54
2017-10-06T16:17:34.559Z,16.98
2017-10-06T16:32:34.900Z,16.45
2017-10-06T16:47:35.248Z,15.98
2017-10-06T17:02:35.009Z,15.58
2017-10-06T17:17:34.755Z,15.27
2017-10-06T17:32:36.176Z,14.94
2017-10-06T17:47:35.119Z,14.53
2017-10-06T18:02:38.427Z,14.21
2017-10-06T18:17:35.026Z,14.08
2017-10-06T18:32:34.690Z,13.92
2017-10-06T18:47:36.443Z,13.76
2017-10-06T19:02:36.845Z,13.65
2017-10-06T19:17:34.715Z,13.54
2017-10-06T19:32:34.836Z,13.55
2017-10-06T19:47:34.793Z,13.50
2017-10-06T20:02:34.643Z,13.38
2017-10-06T20:17:34.606Z,13.18
2017-10-06T20:32:35.995Z,13.06
2017-10-06T20:47:35.044Z,12.85
2017-10-06T21:02:34.924Z,12.63
2017-10-06T21:17:34.877Z,12.54
2017-10-06T21:32:34.306Z,12.47
2017-10-06T21:47:37.257Z,12.44
2017-10-06T22:02:35.696Z,12.37
2017-10-06T22:17:35.327Z,12.36
2017-10-06T22:32:34.559Z,12.30
2017-10-06T22:47:37.619Z,12.30
2017-10-06T23:02:36.494Z,12.33
2017-10-06T23:17:34.454Z,12.38
2017-10-06T23:32:36.894Z,12.37
2017-10-06T23:47:35.937Z,12.39
